createdAt,value
2022-12-11T00:00:57.407Z,18.45
2022-12-11T00:03:25.523Z,17.90
2022-12-11T00:05:53.511Z,18.42
2022-12-11T00:08:22.797Z,17.60
2022-12-11T00:10:51.077Z,17.70
2022-12-11T00:13:18.913Z,18.38
2022-12-11T00:15:46.834Z,20.05
2022-12-11T00:18:15.238Z,18.90
2022-12-11T00:20:43.188Z,19.27
2022-12-11T00:23:11.887Z,18.85
2022-12-11T00:25:45.079Z,19.40
2022-12-11T00:28:13.467Z,17.35
2022-12-11T00:30:42.375Z,17.25
2022-12-11T00:33:12.067Z,17.60
2022-12-11T00:35:41.859Z,17.27
2022-12-11T00:38:10.423Z,17.58
2022-12-11T00:40:38.756Z,15.15
2022-12-11T00:43:08.547Z,15.77
2022-12-11T00:45:38.226Z,16.65
2022-12-11T00:48:07.120Z,17.27
2022-12-11T00:50:35.453Z,16.30
2022-12-11T00:53:04.470Z,16.90
2022-12-11T00:55:33.405Z,17.10
2022-12-11T00:58:01.420Z,15.85
2022-12-11T01:00:30.988Z,16.25
2022-12-11T01:02:58.900Z,16.10
2022-12-11T01:05:27.117Z,15.07
2022-12-11T01:07:55.579Z,15.77
2022-12-11T01:10:26.383Z,15.52
2022-12-11T01:12:56.244Z,15.40
2022-12-11T01:15:26.011Z,15.57
2022-12-11T01:17:55.620Z,16.23
2022-12-11T01:20:25.483Z,18.00
2022-12-11T01:22:54.215Z,15.35
2022-12-11T01:25:22.549Z,16.50
2022-12-11T01:27:52.497Z,15.57
2022-12-11T01:30:22.457Z,14.93
2022-12-11T01:32:50.883Z,15.30
2022-12-11T01:35:20.722Z,15.52
2022-12-11T01:37:49.286Z,14.57
2022-12-11T01:40:20.119Z,17.73
2022-12-11T01:42:48.264Z,17.17
2022-12-11T01:45:39.975Z,15.75
2022-12-11T01:48:11.164Z,14.63
2022-12-11T01:50:45.066Z,17.88
2022-12-11T01:53:18.687Z,17.40
2022-12-11T01:55:49.451Z,18.02
2022-12-11T01:58:19.475Z,17.77
2022-12-11T02:00:47.679Z,18.70
2022-12-11T02:03:15.711Z,18.40
2022-12-11T02:05:45.235Z,18.15
2022-12-11T02:08:13.658Z,17.20
2022-12-11T02:10:55.836Z,19.17
2022-12-11T02:13:30.647Z,18.30
2022-12-11T02:16:05.941Z,18.85
2022-12-11T02:18:39.967Z,20.75
2022-12-11T02:21:14.413Z,18.63
2022-12-11T02:24:04.563Z,18.88
2022-12-11T02:26:47.447Z,18.73
2022-12-11T02:29:21.053Z,19.10
2022-12-11T02:31:54.674Z,19.92
2022-12-11T02:34:26.428Z,20.05
2022-12-11T02:37:00.279Z,19.70
2022-12-11T02:39:29.661Z,19.85
2022-12-11T02:41:57.999Z,19.40
2022-12-11T02:44:31.599Z,20.35
2022-12-11T02:47:00.543Z,20.10
2022-12-11T02:49:29.363Z,21.50
2022-12-11T02:51:58.163Z,20.67
2022-12-11T02:54:31.368Z,20.17
2022-12-11T02:57:04.773Z,20.80
2022-12-11T03:02:04.405Z,19.55
2022-12-11T03:04:34.848Z,20.00
2022-12-11T03:07:12.005Z,19.83
2022-12-11T03:09:40.583Z,19.02
2022-12-11T03:12:10.689Z,21.30
2022-12-11T03:14:41.902Z,21.33
2022-12-11T03:17:14.937Z,18.45
2022-12-11T03:19:51.264Z,20.48
2022-12-11T03:22:23.860Z,18.10
2022-12-11T03:24:54.851Z,18.77
2022-12-11T03:27:28.198Z,17.45
2022-12-11T03:30:01.450Z,17.60
2022-12-11T03:32:32.366Z,18.13
2022-12-11T03:35:04.819Z,20.55
2022-12-11T03:37:37.651Z,12.82
2022-12-11T03:40:11.867Z,18.58
2022-12-11T03:42:41.532Z,17.58
2022-12-11T03:45:13.115Z,18.70
2022-12-11T03:47:43.823Z,19.83
2022-12-11T03:50:15.373Z,18.55
2022-12-11T03:52:46.374Z,18.63
2022-12-11T03:55:17.219Z,18.83
2022-12-11T03:57:45.655Z,18.58
2022-12-11T04:00:18.021Z,17.10
2022-12-11T04:03:12.645Z,18.33
2022-12-11T04:05:42.416Z,17.45
2022-12-11T04:08:11.328Z,17.75
2022-12-11T04:10:39.715Z,18.52
2022-12-11T04:13:08.406Z,18.90
2022-12-11T04:15:38.735Z,17.63
2022-12-11T04:18:25.537Z,19.38
2022-12-11T04:21:12.750Z,17.10
2022-12-11T04:23:58.579Z,18.90
2022-12-11T04:26:26.905Z,16.40
2022-12-11T04:28:55.452Z,17.83
2022-12-11T04:31:24.719Z,18.75
2022-12-11T04:33:53.258Z,17.65
2022-12-11T04:36:21.436Z,16.92
2022-12-11T04:38:49.371Z,16.77
2022-12-11T04:41:18.331Z,17.95
2022-12-11T04:43:46.325Z,17.63
2022-12-11T04:46:16.505Z,17.83
2022-12-11T04:48:46.273Z,18.60
2022-12-11T04:51:15.246Z,18.05
2022-12-11T04:53:43.297Z,18.15
2022-12-11T04:56:13.787Z,16.92
2022-12-11T04:58:42.433Z,16.98
2022-12-11T05:01:11.597Z,17.30
2022-12-11T05:03:40.530Z,17.30
2022-12-11T05:06:10.943Z,16.88
2022-12-11T05:08:40.706Z,16.58
2022-12-11T05:11:11.719Z,17.15
2022-12-11T05:13:40.440Z,16.65
2022-12-11T05:16:10.334Z,16.30
2022-12-11T05:18:38.634Z,16.98
2022-12-11T05:21:09.745Z,17.02
2022-12-11T05:23:38.310Z,16.33
2022-12-11T05:26:09.787Z,17.25
2022-12-11T05:28:39.132Z,15.98
2022-12-11T05:31:09.683Z,17.80
2022-12-11T05:33:37.686Z,16.98
2022-12-11T05:36:06.126Z,18.33
2022-12-11T05:38:35.920Z,18.63
2022-12-11T05:41:07.181Z,17.58
2022-12-11T05:43:37.867Z,16.70
2022-12-11T05:46:07.236Z,18.00
2022-12-11T05:48:35.889Z,16.20
2022-12-11T05:51:05.276Z,18.90
2022-12-11T05:53:35.581Z,17.05
2022-12-11T05:56:04.621Z,18.38
2022-12-11T05:58:33.013Z,18.20
2022-12-11T06:01:02.159Z,18.70
2022-12-11T06:03:30.283Z,17.75
2022-12-11T06:05:58.387Z,18.30
2022-12-11T06:08:26.783Z,18.38
2022-12-11T06:10:56.346Z,20.27
2022-12-11T06:13:24.639Z,18.13
2022-12-11T06:15:52.817Z,17.77
2022-12-11T06:18:21.219Z,18.33
2022-12-11T06:20:49.356Z,17.60
2022-12-11T06:23:18.356Z,17.50
2022-12-11T06:25:46.513Z,17.17
2022-12-11T06:28:16.266Z,16.95
2022-12-11T06:30:45.018Z,16.30
2022-12-11T06:33:13.520Z,16.60
2022-12-11T06:35:42.575Z,18.38
2022-12-11T06:38:10.978Z,17.48
2022-12-11T06:40:39.472Z,18.15
2022-12-11T06:43:07.505Z,17.15
2022-12-11T06:45:38.472Z,16.85
2022-12-11T06:48:07.035Z,16.90
2022-12-11T06:50:34.908Z,17.08
2022-12-11T06:53:03.127Z,17.55
2022-12-11T06:55:31.481Z,17.27
2022-12-11T06:57:59.564Z,18.13
2022-12-11T07:00:27.675Z,18.27
2022-12-11T07:02:57.151Z,18.38
2022-12-11T07:05:25.369Z,17.08
2022-12-11T07:07:54.774Z,17.65
2022-12-11T07:10:23.573Z,16.85
2022-12-11T07:12:53.489Z,16.63
2022-12-11T07:15:21.935Z,16.55
2022-12-11T07:17:49.859Z,15.77
2022-12-11T07:20:19.170Z,16.70
2022-12-11T07:22:47.156Z,17.58
2022-12-11T07:25:15.383Z,17.25
2022-12-11T07:27:43.707Z,18.05
2022-12-11T07:30:13.082Z,15.65
2022-12-11T07:32:41.178Z,17.23
2022-12-11T07:35:10.437Z,15.60
2022-12-11T07:37:42.619Z,16.83
2022-12-11T07:40:11.684Z,16.77
2022-12-11T07:42:45.821Z,16.83
2022-12-11T07:45:14.388Z,17.08
2022-12-11T07:47:42.837Z,16.48
2022-12-11T07:50:11.276Z,17.58
2022-12-11T07:52:39.158Z,16.00
2022-12-11T07:55:09.694Z,15.43
2022-12-11T07:57:38.490Z,15.77
2022-12-11T08:00:07.903Z,17.48
2022-12-11T08:02:40.687Z,15.82
2022-12-11T08:05:10.222Z,18.08
2022-12-11T08:07:38.977Z,17.35
2022-12-11T08:10:08.968Z,17.40
2022-12-11T08:12:37.037Z,17.58
2022-12-11T08:15:05.674Z,15.63
2022-12-11T08:17:39.693Z,17.50
2022-12-11T08:20:09.649Z,18.48
2022-12-11T08:22:37.698Z,18.58
2022-12-11T08:25:06.458Z,19.45
2022-12-11T08:27:35.933Z,18.73
2022-12-11T08:30:04.738Z,18.05
2022-12-11T08:32:32.623Z,16.85
2022-12-11T08:35:00.852Z,17.45
2022-12-11T08:37:29.661Z,18.10
2022-12-11T08:39:57.677Z,18.95
2022-12-11T08:42:25.663Z,16.55
2022-12-11T08:44:55.013Z,18.23
2022-12-11T08:47:23.107Z,16.23
2022-12-11T08:49:51.132Z,17.90
2022-12-11T08:52:18.967Z,18.67
2022-12-11T08:54:46.831Z,17.45
2022-12-11T08:57:14.762Z,17.80
2022-12-11T08:59:44.951Z,17.95
2022-12-11T09:02:14.453Z,17.85
2022-12-11T09:04:43.288Z,18.23
2022-12-11T09:07:12.060Z,18.73
2022-12-11T09:09:39.994Z,18.25
2022-12-11T09:12:07.959Z,18.55
2022-12-11T09:14:36.170Z,18.70
2022-12-11T09:17:05.485Z,18.25
2022-12-11T09:19:34.876Z,18.95
2022-12-11T09:22:03.494Z,19.05
2022-12-11T09:24:31.449Z,17.38
2022-12-11T09:26:59.546Z,19.05
2022-12-11T09:29:27.694Z,20.35
2022-12-11T09:31:55.959Z,18.25
2022-12-11T09:34:29.151Z,19.73
2022-12-11T09:36:59.538Z,19.80
2022-12-11T09:39:27.744Z,18.83
2022-12-11T09:42:03.692Z,20.48
2022-12-11T09:44:39.116Z,19.90
2022-12-11T09:47:18.465Z,18.30
2022-12-11T09:49:49.456Z,19.45
2022-12-11T09:52:24.827Z,17.35
2022-12-11T09:54:58.309Z,19.65
2022-12-11T10:00:20.314Z,17.60
2022-12-11T10:03:03.856Z,18.85
2022-12-11T10:05:40.013Z,19.42
2022-12-11T10:08:19.119Z,19.58
2022-12-11T10:10:56.796Z,19.27
2022-12-11T10:13:31.764Z,19.17
2022-12-11T10:16:06.695Z,19.30
2022-12-11T10:18:35.382Z,19.98
2022-12-11T10:21:04.530Z,19.17
2022-12-11T10:23:39.812Z,20.52
2022-12-11T10:26:12.449Z,19.08
2022-12-11T10:28:40.474Z,20.58
2022-12-11T10:31:18.361Z,19.65
2022-12-11T10:33:57.595Z,20.25
2022-12-11T10:36:30.249Z,19.30
2022-12-11T10:38:59.901Z,19.50
2022-12-11T10:41:38.070Z,20.70
2022-12-11T10:44:16.507Z,20.23
2022-12-11T10:46:45.757Z,20.20
2022-12-11T10:49:26.286Z,20.67
2022-12-11T10:51:56.115Z,20.42
2022-12-11T10:54:34.308Z,20.23
2022-12-11T10:57:04.323Z,20.00
2022-12-11T10:59:37.913Z,21.17
2022-12-11T11:02:08.524Z,21.08
2022-12-11T11:04:39.400Z,20.05
2022-12-11T11:07:14.490Z,21.58
2022-12-11T11:09:44.465Z,19.98
2022-12-11T11:12:21.393Z,21.27
2022-12-11T11:15:00.765Z,20.75
2022-12-11T11:17:34.702Z,20.52
2022-12-11T11:20:13.448Z,21.67
2022-12-11T11:22:45.933Z,21.05
2022-12-11T11:25:21.073Z,21.20
2022-12-11T11:27:55.117Z,21.58
2022-12-11T11:30:25.607Z,22.08
2022-12-11T11:32:56.282Z,20.63
2022-12-11T11:35:27.319Z,22.75
2022-12-11T11:38:01.696Z,22.23
2022-12-11T11:40:35.227Z,21.13
2022-12-11T11:45:44.034Z,20.90
2022-12-11T11:48:23.900Z,21.65
2022-12-11T11:50:53.934Z,21.77
2022-12-11T11:53:38.093Z,22.23
2022-12-11T11:56:20.037Z,20.95
2022-12-11T11:58:56.159Z,22.75
2022-12-11T12:01:25.236Z,22.40
2022-12-11T12:03:53.787Z,22.50
2022-12-11T12:06:31.142Z,22.45
2022-12-11T12:09:13.074Z,21.45
2022-12-11T12:11:49.523Z,21.58
2022-12-11T12:14:51.233Z,20.55
2022-12-11T12:17:21.410Z,22.48
2022-12-11T12:20:00.094Z,22.05
2022-12-11T12:22:46.604Z,20.70
2022-12-11T12:25:23.306Z,22.17
2022-12-11T12:28:00.863Z,21.58
2022-12-11T12:30:36.848Z,21.58
2022-12-11T12:33:21.048Z,21.88
2022-12-11T12:36:00.841Z,21.55
2022-12-11T12:38:42.472Z,22.20
2022-12-11T12:41:21.845Z,20.20
2022-12-11T12:44:13.929Z,21.73
2022-12-11T12:46:51.753Z,21.30
2022-12-11T12:49:33.974Z,22.98
2022-12-11T12:52:03.295Z,21.98
2022-12-11T12:54:35.636Z,22.05
2022-12-11T12:57:05.396Z,22.58
2022-12-11T12:59:37.359Z,22.40
2022-12-11T13:02:09.421Z,21.67
2022-12-11T13:04:58.449Z,20.45
2022-12-11T13:07:35.044Z,19.70
2022-12-11T13:10:08.881Z,22.63
2022-12-11T13:12:45.404Z,20.42
2022-12-11T13:15:33.013Z,22.25
2022-12-11T13:18:31.750Z,20.35
2022-12-11T13:21:02.992Z,20.25
2022-12-11T13:23:40.706Z,21.15
2022-12-11T13:26:10.646Z,20.38
2022-12-11T13:28:51.119Z,20.92
2022-12-11T13:31:34.942Z,21.63
2022-12-11T13:34:19.746Z,20.85
2022-12-11T13:36:50.133Z,20.60
2022-12-11T13:39:20.943Z,22.00
2022-12-11T13:41:53.462Z,21.85
2022-12-11T13:44:25.962Z,20.25
2022-12-11T13:47:00.025Z,20.67
2022-12-11T13:49:31.345Z,21.38
2022-12-11T13:52:00.874Z,21.88
2022-12-11T13:54:31.408Z,22.88
2022-12-11T13:57:03.545Z,20.92
2022-12-11T13:59:34.958Z,21.52
2022-12-11T14:02:14.265Z,21.38
2022-12-11T14:04:43.442Z,20.58
2022-12-11T14:07:12.941Z,20.85
2022-12-11T14:09:45.469Z,21.92
2022-12-11T14:12:19.506Z,23.27
2022-12-11T14:14:52.358Z,21.15
2022-12-11T14:17:26.490Z,21.05
2022-12-11T14:19:55.879Z,21.52
2022-12-11T14:22:26.101Z,22.15
2022-12-11T14:24:56.206Z,20.02
2022-12-11T14:27:26.290Z,22.15
2022-12-11T14:29:54.534Z,22.55
2022-12-11T14:32:32.894Z,21.55
2022-12-11T14:35:03.473Z,22.83
2022-12-11T14:37:32.437Z,20.05
2022-12-11T14:40:04.426Z,21.85
2022-12-11T14:42:34.854Z,20.95
2022-12-11T14:45:09.420Z,21.25
2022-12-11T14:47:43.608Z,22.77
2022-12-11T14:50:19.254Z,21.80
2022-12-11T14:52:49.239Z,23.95
2022-12-11T14:55:20.950Z,23.65
2022-12-11T14:57:51.198Z,22.33
2022-12-11T15:00:24.590Z,22.15
2022-12-11T15:03:02.726Z,21.13
2022-12-11T15:05:37.121Z,21.60
2022-12-11T15:08:24.484Z,21.90
2022-12-11T15:11:07.315Z,23.20
2022-12-11T15:13:37.645Z,21.45
2022-12-11T15:16:08.374Z,22.42
2022-12-11T15:18:41.697Z,22.83
2022-12-11T15:21:13.268Z,21.70
2022-12-11T15:23:52.770Z,23.70
2022-12-11T15:26:22.059Z,21.45
2022-12-11T15:29:01.999Z,22.35
2022-12-11T15:31:32.006Z,21.73
2022-12-11T15:34:03.760Z,23.35
2022-12-11T15:36:34.803Z,21.95
2022-12-11T15:39:03.574Z,22.77
2022-12-11T15:41:33.432Z,22.45
2022-12-11T15:44:03.655Z,23.25
2022-12-11T15:46:36.073Z,22.80
2022-12-11T15:49:12.768Z,23.10
2022-12-11T15:51:43.103Z,21.65
2022-12-11T15:54:11.713Z,22.67
2022-12-11T15:56:41.024Z,21.77
2022-12-11T15:59:11.000Z,21.88
2022-12-11T16:01:38.895Z,21.25
2022-12-11T16:04:08.358Z,21.80
2022-12-11T16:06:36.324Z,21.42
2022-12-11T16:09:05.713Z,21.77
2022-12-11T16:11:33.685Z,21.05
2022-12-11T16:14:04.504Z,22.52
2022-12-11T16:16:32.650Z,23.40
2022-12-11T16:19:00.844Z,23.60
2022-12-11T16:21:30.377Z,23.73
2022-12-11T16:23:58.303Z,22.30
2022-12-11T16:26:26.212Z,23.77
2022-12-11T16:28:54.199Z,23.75
2022-12-11T16:31:22.300Z,23.45
2022-12-11T16:33:50.278Z,24.83
2022-12-11T16:36:20.153Z,25.33
2022-12-11T16:38:53.959Z,24.73
2022-12-11T16:41:23.800Z,23.92
2022-12-11T16:43:52.298Z,24.52
2022-12-11T16:46:21.327Z,23.75
2022-12-11T16:48:49.719Z,22.73
2022-12-11T16:51:18.305Z,24.80
2022-12-11T16:53:46.492Z,23.30
2022-12-11T16:56:16.152Z,24.00
2022-12-11T16:58:44.332Z,23.33
2022-12-11T17:01:13.930Z,23.05
2022-12-11T17:03:43.524Z,22.02
2022-12-11T17:06:13.848Z,21.02
2022-12-11T17:08:42.916Z,18.27
2022-12-11T17:11:13.390Z,17.70
2022-12-11T17:13:42.713Z,19.70
2022-12-11T17:16:14.170Z,20.35
2022-12-11T17:18:42.788Z,18.48
2022-12-11T17:21:12.561Z,19.00
2022-12-11T17:23:43.516Z,19.10
2022-12-11T17:26:15.151Z,19.52
2022-12-11T17:28:46.963Z,18.25
2022-12-11T17:31:19.735Z,18.23
2022-12-11T17:33:50.029Z,18.17
2022-12-11T17:36:21.634Z,19.25
2022-12-11T17:38:50.550Z,18.73
2022-12-11T17:41:20.901Z,19.90
2022-12-11T17:43:51.921Z,17.90
2022-12-11T17:46:21.772Z,19.92
2022-12-11T17:48:50.215Z,20.38
2022-12-11T17:51:23.823Z,20.73
2022-12-11T17:53:53.631Z,19.90
2022-12-11T17:56:21.626Z,21.25
2022-12-11T17:58:51.184Z,21.92
2022-12-11T18:01:19.769Z,20.23
2022-12-11T18:03:48.269Z,20.08
2022-12-11T18:06:17.040Z,21.05
2022-12-11T18:08:46.233Z,20.70
2022-12-11T18:11:16.740Z,21.25
2022-12-11T18:13:46.008Z,21.20
2022-12-11T18:16:17.811Z,20.50
2022-12-11T18:18:47.247Z,21.15
2022-12-11T18:21:17.477Z,20.30
2022-12-11T18:23:46.137Z,19.63
2022-12-11T18:26:15.396Z,18.98
2022-12-11T18:28:43.801Z,20.42
2022-12-11T18:31:13.722Z,19.60
2022-12-11T18:33:44.839Z,18.52
2022-12-11T18:36:13.729Z,20.17
2022-12-11T18:38:44.965Z,18.35
2022-12-11T18:41:15.113Z,18.48
2022-12-11T18:43:43.144Z,18.88
2022-12-11T18:46:14.245Z,20.52
2022-12-11T18:48:44.814Z,18.30
2022-12-11T18:51:15.639Z,18.95
2022-12-11T18:53:44.449Z,20.55
2022-12-11T18:56:14.791Z,19.08
2022-12-11T18:58:43.875Z,20.63
2022-12-11T19:01:14.119Z,18.38
2022-12-11T19:03:47.325Z,18.48
2022-12-11T19:06:19.118Z,18.20
2022-12-11T19:08:47.887Z,17.75
2022-12-11T19:11:17.732Z,17.67
2022-12-11T19:13:47.323Z,19.85
2022-12-11T19:16:17.336Z,18.65
2022-12-11T19:18:47.035Z,18.27
2022-12-11T19:21:16.787Z,18.23
2022-12-11T19:23:46.210Z,18.60
2022-12-11T19:26:16.960Z,17.27
2022-12-11T19:28:45.538Z,19.02
2022-12-11T19:31:16.345Z,20.20
2022-12-11T19:33:46.790Z,18.60
2022-12-11T19:36:17.792Z,17.77
2022-12-11T19:38:47.287Z,18.98
2022-12-11T19:41:18.355Z,17.52
2022-12-11T19:43:46.711Z,18.98
2022-12-11T19:46:16.096Z,19.17
2022-12-11T19:48:46.540Z,17.70
2022-12-11T19:51:16.170Z,17.10
2022-12-11T19:53:45.797Z,18.02
2022-12-11T19:56:14.860Z,19.05
2022-12-11T19:58:44.056Z,18.77
2022-12-11T20:01:22.544Z,18.40
2022-12-11T20:03:52.299Z,18.67
2022-12-11T20:06:21.007Z,19.40
2022-12-11T20:08:49.717Z,17.95
2022-12-11T20:11:19.231Z,18.67
2022-12-11T20:13:47.541Z,19.95
2022-12-11T20:16:17.313Z,17.60
2022-12-11T20:18:46.193Z,16.90
2022-12-11T20:21:18.118Z,18.15
2022-12-11T20:23:46.713Z,18.23
2022-12-11T20:26:17.701Z,17.70
2022-12-11T20:28:48.212Z,17.92
2022-12-11T20:31:20.428Z,17.58
2022-12-11T20:33:49.753Z,18.80
2022-12-11T20:36:21.426Z,16.73
2022-12-11T20:38:49.753Z,17.65
2022-12-11T20:41:21.303Z,17.65
2022-12-11T20:43:50.071Z,18.05
2022-12-11T20:46:20.326Z,18.10
2022-12-11T20:48:48.809Z,17.08
2022-12-11T20:51:25.824Z,18.05
2022-12-11T20:53:58.919Z,18.63
2022-12-11T20:56:29.599Z,17.73
2022-12-11T20:58:58.609Z,17.48
2022-12-11T21:01:28.521Z,16.38
2022-12-11T21:03:56.955Z,18.10
2022-12-11T21:06:28.403Z,17.00
2022-12-11T21:08:56.352Z,18.00
2022-12-11T21:11:25.106Z,17.75
2022-12-11T21:13:54.124Z,17.20
2022-12-11T21:16:23.567Z,17.48
2022-12-11T21:18:52.078Z,17.05
2022-12-11T21:21:22.193Z,18.38
2022-12-11T21:23:51.778Z,15.68
2022-12-11T21:26:19.958Z,18.17
2022-12-11T21:28:47.988Z,17.85
2022-12-11T21:31:19.327Z,18.15
2022-12-11T21:33:49.216Z,15.48
2022-12-11T21:36:19.895Z,16.75
2022-12-11T21:38:54.980Z,17.88
2022-12-11T21:41:26.694Z,17.05
2022-12-11T21:45:14.634Z,17.42
2022-12-11T21:46:45.824Z,17.30
2022-12-11T21:49:13.844Z,16.83
2022-12-11T21:51:47.181Z,16.08
2022-12-11T21:54:19.008Z,16.10
2022-12-11T21:56:48.260Z,15.93
2022-12-11T21:59:16.896Z,15.57
2022-12-11T22:01:47.207Z,15.57
2022-12-11T22:04:17.132Z,15.95
2022-12-11T22:06:47.380Z,15.73
2022-12-11T22:09:18.004Z,16.15
2022-12-11T22:11:47.576Z,16.27
2022-12-11T22:14:18.596Z,16.50
2022-12-11T22:16:47.266Z,17.00
2022-12-11T22:19:15.816Z,16.80
2022-12-11T22:21:44.257Z,17.42
2022-12-11T22:24:12.637Z,17.67
2022-12-11T22:26:41.902Z,15.70
2022-12-11T22:29:09.900Z,15.68
2022-12-11T22:31:37.918Z,15.30
2022-12-11T22:34:06.198Z,16.17
2022-12-11T22:36:34.312Z,16.55
2022-12-11T22:39:03.032Z,16.70
2022-12-11T22:41:32.727Z,15.15
2022-12-11T22:44:02.607Z,15.73
2022-12-11T22:46:31.763Z,18.10
2022-12-11T22:49:00.207Z,17.67
2022-12-11T22:51:28.421Z,15.50
2022-12-11T22:53:56.431Z,16.02
2022-12-11T22:56:24.992Z,16.80
2022-12-11T22:58:53.136Z,16.10
2022-12-11T23:01:25.187Z,16.40
2022-12-11T23:03:53.952Z,15.95
2022-12-11T23:06:24.925Z,16.08
2022-12-11T23:08:55.080Z,15.75
2022-12-11T23:11:25.889Z,15.45
2022-12-11T23:13:54.500Z,15.98
2022-12-11T23:16:26.310Z,17.50
2022-12-11T23:18:55.192Z,16.17
2022-12-11T23:21:24.375Z,15.25
2022-12-11T23:23:52.844Z,16.63
2022-12-11T23:26:21.827Z,16.00
2022-12-11T23:28:50.724Z,15.60
2022-12-11T23:31:18.844Z,16.80
2022-12-11T23:33:48.263Z,15.32
2022-12-11T23:36:16.456Z,16.42
2022-12-11T23:38:47.179Z,16.35
2022-12-11T23:41:17.594Z,16.10
2022-12-11T23:43:45.499Z,15.90
2022-12-11T23:46:16.357Z,16.10
2022-12-11T23:48:44.759Z,15.30
2022-12-11T23:51:16.583Z,16.48
2022-12-11T23:53:45.129Z,16.45
2022-12-11T23:56:15.870Z,15.85
2022-12-11T23:58:43.754Z,15.63
